Westwind — PG2085 — position and weather

sailwx.info

Track history (hours):
 
Tides and Currents Weather Stations Pressure Air Temp Water Temp Dewpoint Dewpoint Depression Visibility Wind Speed Wind Dir Waves Ship Positions

Westwind

Last reported at 2017-Nov-19 14:29 UTC. Time now 2017-Nov-22 05:41 UTC.
Position N 27°58' W 015°21'.

Length 13 m.

Type: Pleasure craft. MMSI: 244740574.

Date/timePositionNaut miles runAvg speedWind from/ knotsBaromVisibWave heightAir tempDewpointWater temp
2017-Nov-19 14:29N 27°58' W 015°21'2 4.5
2017-Nov-19 14:00N 28°00' W 015°21'2 4.9
2017-Nov-19 13:30N 28°02' W 015°22'2 5.0
2017-Nov-19 13:00N 28°05' W 015°24'2 4.4
2017-Nov-19 12:29N 28°07' W 015°25'1 2.3
2017-Nov-19 11:56N 28°08' W 015°25'0 0.0
2017-Nov-19 11:29N 28°08' W 015°25'0 0.0
2017-Nov-19 10:59N 28°08' W 015°25'0 0.0
2017-Nov-19 10:29N 28°08' W 015°25'0 0.0
2017-Nov-19 09:59N 28°08' W 015°25'0 0.0
2017-Nov-19 09:29N 28°08' W 015°25'0 0.0
2017-Nov-19 08:56N 28°08' W 015°25'0 0.0
2017-Nov-19 08:29N 28°08' W 015°25'0 0.0
2017-Nov-19 07:59N 28°08' W 015°25'0 0.0
2017-Nov-19 07:29N 28°08' W 015°25'0 0.0
2017-Nov-19 06:59N 28°08' W 015°25'0 0.0
2017-Nov-19 06:29N 28°08' W 015°25'0 0.0
2017-Nov-19 05:50N 28°08' W 015°25'0 0.0
2017-Nov-19 05:20N 28°08' W 015°25'0 0.0
2017-Nov-19 04:50N 28°08' W 015°25'0 0.0
2017-Nov-19 04:23N 28°08' W 015°25'0 0.0
2017-Nov-19 03:50N 28°08' W 015°25'0 0.0
2017-Nov-19 03:23N 28°08' W 015°25'0 0.0
2017-Nov-19 02:53N 28°08' W 015°25'0 0.0
2017-Nov-19 02:20N 28°08' W 015°25'0 0.0
2017-Nov-19 01:41N 28°08' W 015°25'0 0.0
2017-Nov-19 01:26N 28°08' W 015°25'0 0.0
2017-Nov-19 00:56N 28°08' W 015°25'0 0.0
2017-Nov-19 00:26N 28°08' W 015°25'0 0.0
2017-Nov-18 23:56N 28°08' W 015°25'0 0.0
2017-Nov-18 23:29N 28°08' W 015°25'0 0.0
2017-Nov-18 22:44N 28°08' W 015°25'0 0.0
2017-Nov-18 22:29N 28°08' W 015°25'0 0.0
2017-Nov-18 21:56N 28°08' W 015°25'0 0.0
2017-Nov-18 21:26N 28°08' W 015°25'0 0.0
2017-Nov-18 20:59N 28°08' W 015°25'0 0.0
2017-Nov-18 20:29N 28°08' W 015°25'0 0.0
2017-Nov-18 19:59N 28°08' W 015°25'0 0.0
2017-Nov-18 19:29N 28°08' W 015°25'0 0.0
2017-Nov-18 18:59N 28°08' W 015°25'0 0.0
2017-Nov-18 18:29N 28°08' W 015°25'0 0.0
2017-Nov-18 17:59N 28°08' W 015°25'0 0.0
2017-Nov-18 17:29N 28°08' W 015°25'0 0.0
2017-Nov-18 16:50N 28°08' W 015°25'0 0.0
2017-Nov-18 16:20N 28°08' W 015°25'0 0.0
2017-Nov-18 15:53N 28°08' W 015°25'0 0.0
2017-Nov-18 15:23N 28°08' W 015°25'0 0.0
2017-Nov-18 14:50N 28°08' W 015°25'0 0.0
2017-Nov-18 14:23N 28°08' W 015°25'0 0.0
2017-Nov-18 13:53N 28°08' W 015°25'0 0.0
2017-Nov-18 13:30N 28°08' W 015°25'2 3.2
2017-Nov-18 13:00N 28°08' W 015°24'1 2.3
2017-Nov-18 12:30N 28°08' W 015°23'1 0.8
2017-Nov-18 11:51N 28°08' W 015°23'1 1.2
2017-Nov-18 11:24N 28°07' W 015°23'1 1.4
2017-Nov-18 10:57N 28°07' W 015°24'0 1.1
2017-Nov-18 10:30N 28°07' W 015°24'1 1.1
2017-Nov-18 10:00N 28°07' W 015°25'1 0.9
2017-Nov-18 09:25N 28°08' W 015°25'0 0.7
2017-Nov-18 08:56N 28°08' W 015°25'0 0.0
2017-Nov-18 08:26N 28°08' W 015°25'0 0.0
2017-Nov-18 07:56N 28°08' W 015°25'0 0.0
2017-Nov-18 07:29N 28°08' W 015°25'0 0.0
2017-Nov-18 06:56N 28°08' W 015°25'0 0.0
2017-Nov-18 06:26N 28°08' W 015°25'0 0.0
2017-Nov-18 05:59N 28°08' W 015°25'0 0.0
2017-Nov-18 05:29N 28°08' W 015°25'0 0.0
2017-Nov-18 04:59N 28°08' W 015°25'0 0.0
2017-Nov-18 04:29N 28°08' W 015°25'0 0.0
2017-Nov-18 03:59N 28°08' W 015°25'0 0.0
2017-Nov-18 03:29N 28°08' W 015°25'0 0.0
2017-Nov-18 02:59N 28°08' W 015°25'0 0.0
2017-Nov-18 02:17N 28°08' W 015°25'0 0.0
2017-Nov-18 01:59N 28°08' W 015°25'0 0.0
2017-Nov-18 01:20N 28°08' W 015°25'0 0.0
2017-Nov-18 00:47N 28°08' W 015°25'0 0.0
2017-Nov-18 00:20N 28°08' W 015°25'0 0.0
2017-Nov-17 23:50N 28°08' W 015°25'0 0.0
2017-Nov-17 23:24N 28°08' W 015°25'0 0.0
2017-Nov-17 22:53N 28°08' W 015°25'0 0.0
2017-Nov-17 22:20N 28°08' W 015°25'0 0.0
2017-Nov-17 21:53N 28°08' W 015°25'0 0.0
2017-Nov-17 21:26N 28°08' W 015°25'0 0.0
2017-Nov-17 20:53N 28°08' W 015°25'0 0.0
2017-Nov-17 20:27N 28°08' W 015°25'0 0.0
2017-Nov-17 19:57N 28°08' W 015°25'0 0.0
2017-Nov-17 19:27N 28°08' W 015°25'0 0.0
2017-Nov-17 19:00N 28°08' W 015°25'0 0.0
2017-Nov-17 18:30N 28°08' W 015°25'0 0.0
2017-Nov-17 18:00N 28°08' W 015°25'0 0.0
2017-Nov-17 17:30N 28°08' W 015°25'0 0.0
2017-Nov-17 17:00N 28°08' W 015°25'0 0.0
2017-Nov-17 16:30N 28°08' W 015°25'0 0.0
2017-Nov-17 15:57N 28°08' W 015°25'0 0.0
2017-Nov-17 15:30N 28°08' W 015°25'0 0.0
2017-Nov-17 14:48N 28°08' W 015°25'0 0.0
2017-Nov-17 14:30N 28°08' W 015°25'0 0.0
2017-Nov-17 14:00N 28°08' W 015°25'0 0.0
2017-Nov-17 13:21N 28°08' W 015°25'0 0.0
2017-Nov-17 12:51N 28°08' W 015°25'0 0.0
2017-Nov-17 12:21N 28°08' W 015°25'0 0.0
2017-Nov-17 11:54N 28°08' W 015°25'0 0.0
2017-Nov-17 11:24N 28°08' W 015°25'0 0.0
2017-Nov-17 10:54N 28°08' W 015°25'0 0.0
2017-Nov-17 10:24N 28°08' W 015°25'0 0.0
2017-Nov-17 09:54N 28°08' W 015°25'0 0.0
2017-Nov-17 09:24N 28°08' W 015°25'0 0.0
2017-Nov-17 08:54N 28°08' W 015°25'0 0.0
2017-Nov-17 08:24N 28°08' W 015°25'0 0.0
2017-Nov-17 07:57N 28°08' W 015°25'0 0.0
2017-Nov-17 07:27N 28°08' W 015°25'0 0.0
2017-Nov-17 07:00N 28°08' W 015°25'0 0.0
2017-Nov-17 06:30N 28°08' W 015°25'0 0.0
2017-Nov-17 06:00N 28°08' W 015°25'0 0.0
2017-Nov-17 05:30N 28°08' W 015°25'0 0.0
2017-Nov-17 05:00N 28°08' W 015°25'0 0.0
2017-Nov-17 04:30N 28°08' W 015°25'0 0.0
2017-Nov-17 04:00N 28°08' W 015°25'0 0.0
2017-Nov-17 03:30N 28°08' W 015°25'0 0.0
2017-Nov-17 03:00N 28°08' W 015°25'0 0.0
2017-Nov-17 02:18N 28°08' W 015°25'0 0.0
2017-Nov-17 02:00N 28°08' W 015°25'0 0.0
2017-Nov-17 01:30N 28°08' W 015°25'0 0.0
2017-Nov-17 00:51N 28°08' W 015°25'0 0.0
2017-Nov-17 00:24N 28°08' W 015°25'0 0.0
2017-Nov-16 23:48N 28°08' W 015°25'0 0.0
2017-Nov-16 23:24N 28°08' W 015°25'0 0.0
2017-Nov-16 22:54N 28°08' W 015°25'0 0.0
2017-Nov-16 22:21N 28°08' W 015°25'0 0.0
2017-Nov-16 21:54N 28°08' W 015°25'0 0.0
2017-Nov-16 21:27N 28°08' W 015°25'0 0.0
2017-Nov-16 20:57N 28°08' W 015°25'0 0.0
2017-Nov-16 20:27N 28°08' W 015°25'0 0.0
2017-Nov-16 19:57N 28°08' W 015°25'0 0.0
2017-Nov-16 19:27N 28°08' W 015°25'0 0.0
2017-Nov-16 18:57N 28°08' W 015°25'0 0.0
2017-Nov-16 18:30N 28°08' W 015°25'0 0.0
2017-Nov-16 18:00N 28°08' W 015°25'0 0.0
2017-Nov-16 17:30N 28°08' W 015°25'0 0.0
2017-Nov-16 17:00N 28°08' W 015°25'0 0.0
2017-Nov-16 16:30N 28°08' W 015°25'0 0.0
2017-Nov-16 16:00N 28°08' W 015°25'0 0.0
2017-Nov-16 15:30N 28°08' W 015°25'0 0.0
2017-Nov-16 15:00N 28°08' W 015°25'0 0.0
2017-Nov-16 14:30N 28°08' W 015°25'0 0.0
2017-Nov-16 14:00N 28°08' W 015°25'0 0.0
2017-Nov-16 13:30N 28°08' W 015°25'0 0.0
2017-Nov-16 13:00N 28°08' W 015°25'0 0.0
2017-Nov-16 12:21N 28°08' W 015°25'0 0.0
2017-Nov-16 11:51N 28°08' W 015°25'0 0.0
2017-Nov-16 11:24N 28°08' W 015°25'0 0.0
2017-Nov-16 10:54N 28°08' W 015°25'0 0.0
2017-Nov-16 10:24N 28°08' W 015°25'0 0.0
2017-Nov-16 09:54N 28°08' W 015°25'0 0.0
2017-Nov-16 09:21N 28°08' W 015°25'0 0.0
2017-Nov-16 08:57N 28°08' W 015°25'0 0.0
2017-Nov-16 08:27N 28°08' W 015°25'0 0.0
2017-Nov-16 07:57N 28°08' W 015°25'0 0.0
2017-Nov-16 07:27N 28°08' W 015°25'0 0.0
2017-Nov-16 06:57N 28°08' W 015°25'0 0.0
2017-Nov-16 06:30N 28°08' W 015°25'0 0.0
2017-Nov-16 06:00N 28°08' W 015°25'0 0.0
2017-Nov-16 05:30N 28°08' W 015°25'0 0.0
2017-Nov-16 05:00N 28°08' W 015°25'0 0.0
2017-Nov-16 04:30N 28°08' W 015°25'0 0.0
2017-Nov-16 04:00N 28°08' W 015°25'0 0.0
2017-Nov-16 03:30N 28°08' W 015°25'0 0.0
2017-Nov-16 03:00N 28°08' W 015°25'0 0.0
2017-Nov-16 02:03N 28°08' W 015°25'0 0.1
2017-Nov-16 02:00N 28°08' W 015°25'0 0.0
2017-Nov-16 01:30N 28°08' W 015°25'0 0.0
2017-Nov-16 01:00N 28°08' W 015°25'0 0.0
2017-Nov-16 00:21N 28°08' W 015°25'0 0.0
2017-Nov-15 23:48N 28°08' W 015°25'0 0.0
2017-Nov-15 23:18N 28°08' W 015°25'0 0.0
2017-Nov-15 22:54N 28°08' W 015°25'0 0.0
2017-Nov-15 22:24N 28°08' W 015°25'0 0.0
2017-Nov-15 21:54N 28°08' W 015°25'0 0.0
2017-Nov-15 21:24N 28°08' W 015°25'0 0.0
2017-Nov-15 20:54N 28°08' W 015°25'0 0.0
2017-Nov-15 20:27N 28°08' W 015°25'0 0.0
2017-Nov-15 19:54N 28°08' W 015°25'0 0.0
2017-Nov-15 19:27N 28°08' W 015°25'0 0.0
2017-Nov-15 18:57N 28°08' W 015°25'0 0.0
2017-Nov-15 18:24N 28°08' W 015°25'0 0.0
2017-Nov-15 17:57N 28°08' W 015°25'0 0.0
2017-Nov-15 17:30N 28°08' W 015°25'0 0.0
2017-Nov-15 17:00N 28°08' W 015°25'0 0.0
2017-Nov-15 16:30N 28°08' W 015°25'0 0.0
2017-Nov-15 16:00N 28°08' W 015°25'0 0.0
2017-Nov-15 15:30N 28°08' W 015°25'0 0.0
2017-Nov-15 15:00N 28°08' W 015°25'0 0.0
2017-Nov-15 14:30N 28°08' W 015°25'0 0.0
2017-Nov-15 14:00N 28°08' W 015°25'0 0.0
2017-Nov-15 13:18N 28°08' W 015°25'0 0.0
2017-Nov-15 12:45N 28°08' W 015°25'0 0.0
2017-Nov-15 12:30N 28°08' W 015°25'0 0.0
2017-Nov-15 11:48N 28°08' W 015°25'0 0.0
2017-Nov-15 11:21N 28°08' W 015°25'0 0.0
2017-Nov-15 10:51N 28°08' W 015°25'0 0.0
2017-Nov-15 10:24N 28°08' W 015°25'0 0.0
2017-Nov-15 09:54N 28°08' W 015°25'0 0.0
2017-Nov-15 09:06N 28°08' W 015°25'0 0.0
2017-Nov-15 08:54N 28°08' W 015°25'0 0.0
2017-Nov-15 08:24N 28°08' W 015°25'0 0.0
2017-Nov-15 07:57N 28°08' W 015°25'0 0.0
2017-Nov-15 07:27N 28°08' W 015°25'0 0.0
2017-Nov-15 06:57N 28°08' W 015°25'0 0.0
2017-Nov-15 06:27N 28°08' W 015°25'0 0.0
2017-Nov-15 05:57N 28°08' W 015°25'0 0.0
2017-Nov-15 05:30N 28°08' W 015°25'0 0.0
2017-Nov-15 05:00N 28°08' W 015°25'0 0.0
2017-Nov-15 04:30N 28°08' W 015°25'0 0.0
2017-Nov-15 04:00N 28°08' W 015°25'0 0.0
2017-Nov-15 03:30N 28°08' W 015°25'0 0.0
2017-Nov-15 03:00N 28°08' W 015°25'0 0.0
2017-Nov-15 02:30N 28°08' W 015°25'0 0.0
2017-Nov-15 02:00N 28°08' W 015°25'0 0.0
2017-Nov-15 01:30N 28°08' W 015°25'0 0.0
2017-Nov-15 01:00N 28°08' W 015°25'0 0.0
2017-Nov-15 00:30N 28°08' W 015°25'0 0.0
2017-Nov-15 00:00N 28°08' W 015°25'0 0.0
2017-Nov-14 23:21N 28°08' W 015°25'0 0.0
2017-Nov-14 22:51N 28°08' W 015°25'0 0.0
2017-Nov-14 22:24N 28°08' W 015°25'0 0.0
2017-Nov-14 21:54N 28°08' W 015°25'0 0.0
2017-Nov-14 21:24N 28°08' W 015°25'0 0.0
2017-Nov-14 20:54N 28°08' W 015°25'0 0.0
2017-Nov-14 20:24N 28°08' W 015°25'0 0.0
2017-Nov-14 19:54N 28°08' W 015°25'0 0.0
2017-Nov-14 19:27N 28°08' W 015°25'0 0.0
2017-Nov-14 18:57N 28°08' W 015°25'0 0.0
2017-Nov-14 18:27N 28°08' W 015°25'0 0.0
2017-Nov-14 17:57N 28°08' W 015°25'0 0.0
2017-Nov-14 17:27N 28°08' W 015°25'0 0.0
2017-Nov-14 16:57N 28°08' W 015°25'0 0.0
2017-Nov-14 16:30N 28°08' W 015°25'0 0.0
2017-Nov-14 16:00N 28°08' W 015°25'0 0.0
2017-Nov-14 15:30N 28°08' W 015°25'0 0.0
2017-Nov-14 15:00N 28°08' W 015°25'0 0.0
2017-Nov-14 14:27N 28°08' W 015°25'0 0.0
2017-Nov-14 14:00N 28°08' W 015°25'0 0.0
2017-Nov-14 13:30N 28°08' W 015°25'0 0.0
2017-Nov-14 13:00N 28°08' W 015°25'0 0.0
2017-Nov-14 12:30N 28°08' W 015°25'0 0.0
2017-Nov-14 12:00N 28°08' W 015°25'0 0.0
2017-Nov-14 11:30N 28°08' W 015°25'0 0.0
2017-Nov-14 10:51N 28°08' W 015°25'0 0.0
2017-Nov-14 10:24N 28°08' W 015°25'0 0.0
2017-Nov-14 09:54N 28°08' W 015°25'0 0.0
2017-Nov-14 09:24N 28°08' W 015°25'0 0.0
2017-Nov-14 08:54N 28°08' W 015°25'0 0.0
2017-Nov-14 08:21N 28°08' W 015°25'0 0.0
2017-Nov-14 07:54N 28°08' W 015°25'0 0.0
2017-Nov-14 07:24N 28°08' W 015°25'0 0.0
2017-Nov-14 06:57N 28°08' W 015°25'0 0.0
2017-Nov-14 06:27N 28°08' W 015°25'0 0.0
2017-Nov-14 05:57N 28°08' W 015°25'0 0.0
2017-Nov-14 05:27N 28°08' W 015°25'0 0.0
2017-Nov-14 05:00N 28°08' W 015°25'0 0.0
2017-Nov-14 04:27N 28°08' W 015°25'0 0.0
2017-Nov-14 04:00N 28°08' W 015°25'0 0.0
2017-Nov-14 03:30N 28°08' W 015°25'0 0.0
2017-Nov-14 02:30N 28°08' W 015°25'0 0.0
2017-Nov-14 02:00N 28°08' W 015°25'0 0.0
2017-Nov-14 01:30N 28°08' W 015°25'0 0.0
2017-Nov-14 01:00N 28°08' W 015°25'0 0.0
2017-Nov-14 00:30N 28°08' W 015°25'0 0.0
2017-Nov-14 00:00N 28°08' W 015°25'0 0.0
2017-Nov-13 23:15N 28°08' W 015°25'0 0.0
2017-Nov-13 22:51N 28°08' W 015°25'0 0.0
2017-Nov-13 22:21N 28°08' W 015°25'0 0.0
2017-Nov-13 21:54N 28°08' W 015°25'0 0.0
2017-Nov-13 02:01N 28°08' W 015°25'0 0.0
2017-Nov-13 01:31N 28°08' W 015°25'0 0.0
2017-Nov-13 00:31N 28°08' W 015°25'0 0.0
2017-Nov-12 23:49N 28°08' W 015°25'0 0.0
2017-Nov-12 23:22N 28°08' W 015°25'0 0.0
2017-Nov-12 23:01N 28°08' W 015°25'0 0.0
2017-Nov-12 22:19N 28°08' W 015°25'0 0.0
2017-Nov-12 21:52N 28°08' W 015°25'0 0.0
2017-Nov-12 21:22N 28°08' W 015°25'0 0.0
2017-Nov-12 20:52N 28°08' W 015°25'0 0.0
2017-Nov-12 20:25N 28°08' W 015°25'0 0.0
2017-Nov-12 19:52N 28°08' W 015°25'0 0.0
2017-Nov-12 19:25N 28°08' W 015°25'0 0.0
2017-Nov-12 18:52N 28°08' W 015°25'0 0.0
2017-Nov-12 18:22N 28°08' W 015°25'0 0.0
2017-Nov-12 17:58N 28°08' W 015°25'0 0.0
2017-Nov-12 17:28N 28°08' W 015°25'0 0.0
2017-Nov-12 16:58N 28°08' W 015°25'0 0.0
2017-Nov-12 16:28N 28°08' W 015°25'0 0.0
2017-Nov-12 15:55N 28°08' W 015°25'0 0.0
2017-Nov-12 15:28N 28°08' W 015°25'0 0.0
2017-Nov-12 14:58N 28°08' W 015°25'0 0.0
2017-Nov-12 14:16N 28°08' W 015°25'0 0.2
2017-Nov-12 13:56N 28°08' W 015°26'0 0.0
2017-Nov-12 13:26N 28°08' W 015°26'0 0.0
2017-Nov-12 12:59N 28°08' W 015°26'0 0.2
2017-Nov-12 12:28N 28°08' W 015°26'0 0.0
2017-Nov-12 11:34N 28°08' W 015°26'0 0.0
2017-Nov-12 11:16N 28°08' W 015°26'0 0.0
2017-Nov-12 10:52N 28°08' W 015°26'0 0.0
2017-Nov-12 10:22N 28°08' W 015°26'0 0.0
2017-Nov-12 09:52N 28°08' W 015°26'0 0.0
2017-Nov-12 09:19N 28°08' W 015°26'0 0.0
2017-Nov-12 08:49N 28°08' W 015°26'0 0.0
2017-Nov-12 08:25N 28°08' W 015°26'0 0.0
2017-Nov-12 07:55N 28°08' W 015°26'0 0.0
2017-Nov-12 07:10N 28°08' W 015°26'0 0.0
2017-Nov-12 06:52N 28°08' W 015°26'0 0.0
2017-Nov-12 06:25N 28°08' W 015°26'0 0.0
2017-Nov-12 05:58N 28°08' W 015°26'0 0.0
2017-Nov-12 05:28N 28°08' W 015°26'0 0.0
2017-Nov-12 04:58N 28°08' W 015°26'0 0.0
2017-Nov-12 04:28N 28°08' W 015°26'0 0.0
2017-Nov-12 03:58N 28°08' W 015°26'0 0.0
2017-Nov-12 03:28N 28°08' W 015°26'0 0.0
2017-Nov-12 02:58N 28°08' W 015°26'0 0.0
2017-Nov-12 02:22N 28°08' W 015°26'0 0.0
2017-Nov-12 01:52N 28°08' W 015°26'0 0.0
2017-Nov-12 01:22N 28°08' W 015°26'0 0.0
2017-Nov-12 00:52N 28°08' W 015°26'0 0.0
2017-Nov-12 00:28N 28°08' W 015°26'0 0.0
2017-Nov-11 23:58N 28°08' W 015°26'0 0.0
2017-Nov-11 23:28N 28°08' W 015°26'0 0.0
2017-Nov-11 22:55N 28°08' W 015°26'0 0.0
2017-Nov-11 22:28N 28°08' W 015°26'0 0.0
2017-Nov-11 21:58N 28°08' W 015°26'0 0.0
2017-Nov-11 21:13N 28°08' W 015°26'0 0.0
2017-Nov-11 20:58N 28°08' W 015°26'0 0.0
2017-Nov-11 20:16N 28°08' W 015°26'0 0.0
2017-Nov-11 19:58N 28°08' W 015°26'0 0.0
2017-Nov-11 19:29N 28°08' W 015°26'0 0.0
2017-Nov-11 18:50N 28°08' W 015°26'0 0.0
2017-Nov-11 18:05N 28°08' W 015°26'0 0.0
2017-Nov-11 17:53N 28°08' W 015°26'0 0.0
2017-Nov-11 17:23N 28°08' W 015°26'0 0.0
2017-Nov-11 16:53N 28°08' W 015°26'0 0.1
2017-Nov-11 16:26N 28°08' W 015°26'2 4.2
2017-Nov-11 15:55N 28°06' W 015°24'3 6.4
2017-Nov-11 15:25N 28°03' W 015°22'3 6.4
2017-Nov-11 15:00N 28°01' W 015°21'3 6.0
2017-Nov-11 14:30N 27°58' W 015°19'3 6.1
2017-Nov-11 14:00N 27°56' W 015°17'  
Track history (hours):
 
Tides and Currents Weather Stations Pressure Air Temp Water Temp Dewpoint Dewpoint Depression Visibility Wind Speed Wind Dir Waves Ship Positions

Westwind

Last reported at 2017-Nov-19 14:29 UTC. Time now 2017-Nov-22 05:41 UTC.
Position N 27°58' W 015°21'.

Length 13 m.

Type: Pleasure craft. MMSI: 244740574.

Date/timePositionNaut miles runAvg speedWind from/ knotsBaromVisibWave heightAir tempDewpointWater temp
2017-Nov-19 14:29N 27°58' W 015°21'2 4.5
2017-Nov-19 14:00N 28°00' W 015°21'2 4.9
2017-Nov-19 13:30N 28°02' W 015°22'2 5.0
2017-Nov-19 13:00N 28°05' W 015°24'2 4.4
2017-Nov-19 12:29N 28°07' W 015°25'1 2.3
2017-Nov-19 11:56N 28°08' W 015°25'0 0.0
2017-Nov-19 11:29N 28°08' W 015°25'0 0.0
2017-Nov-19 10:59N 28°08' W 015°25'0 0.0
2017-Nov-19 10:29N 28°08' W 015°25'0 0.0
2017-Nov-19 09:59N 28°08' W 015°25'0 0.0
2017-Nov-19 09:29N 28°08' W 015°25'0 0.0
2017-Nov-19 08:56N 28°08' W 015°25'0 0.0
2017-Nov-19 08:29N 28°08' W 015°25'0 0.0
2017-Nov-19 07:59N 28°08' W 015°25'0 0.0
2017-Nov-19 07:29N 28°08' W 015°25'0 0.0
2017-Nov-19 06:59N 28°08' W 015°25'0 0.0
2017-Nov-19 06:29N 28°08' W 015°25'0 0.0
2017-Nov-19 05:50N 28°08' W 015°25'0 0.0
2017-Nov-19 05:20N 28°08' W 015°25'0 0.0
2017-Nov-19 04:50N 28°08' W 015°25'0 0.0
2017-Nov-19 04:23N 28°08' W 015°25'0 0.0
2017-Nov-19 03:50N 28°08' W 015°25'0 0.0
2017-Nov-19 03:23N 28°08' W 015°25'0 0.0
2017-Nov-19 02:53N 28°08' W 015°25'0 0.0
2017-Nov-19 02:20N 28°08' W 015°25'0 0.0
2017-Nov-19 01:41N 28°08' W 015°25'0 0.0
2017-Nov-19 01:26N 28°08' W 015°25'0 0.0
2017-Nov-19 00:56N 28°08' W 015°25'0 0.0
2017-Nov-19 00:26N 28°08' W 015°25'0 0.0
2017-Nov-18 23:56N 28°08' W 015°25'0 0.0
2017-Nov-18 23:29N 28°08' W 015°25'0 0.0
2017-Nov-18 22:44N 28°08' W 015°25'0 0.0
2017-Nov-18 22:29N 28°08' W 015°25'0 0.0
2017-Nov-18 21:56N 28°08' W 015°25'0 0.0
2017-Nov-18 21:26N 28°08' W 015°25'0 0.0
2017-Nov-18 20:59N 28°08' W 015°25'0 0.0
2017-Nov-18 20:29N 28°08' W 015°25'0 0.0
2017-Nov-18 19:59N 28°08' W 015°25'0 0.0
2017-Nov-18 19:29N 28°08' W 015°25'0 0.0
2017-Nov-18 18:59N 28°08' W 015°25'0 0.0
2017-Nov-18 18:29N 28°08' W 015°25'0 0.0
2017-Nov-18 17:59N 28°08' W 015°25'0 0.0
2017-Nov-18 17:29N 28°08' W 015°25'0 0.0
2017-Nov-18 16:50N 28°08' W 015°25'0 0.0
2017-Nov-18 16:20N 28°08' W 015°25'0 0.0
2017-Nov-18 15:53N 28°08' W 015°25'0 0.0
2017-Nov-18 15:23N 28°08' W 015°25'0 0.0
2017-Nov-18 14:50N 28°08' W 015°25'0 0.0
2017-Nov-18 14:23N 28°08' W 015°25'0 0.0
2017-Nov-18 13:53N 28°08' W 015°25'0 0.0
2017-Nov-18 13:30N 28°08' W 015°25'2 3.2
2017-Nov-18 13:00N 28°08' W 015°24'1 2.3
2017-Nov-18 12:30N 28°08' W 015°23'1 0.8
2017-Nov-18 11:51N 28°08' W 015°23'1 1.2
2017-Nov-18 11:24N 28°07' W 015°23'1 1.4
2017-Nov-18 10:57N 28°07' W 015°24'0 1.1
2017-Nov-18 10:30N 28°07' W 015°24'1 1.1
2017-Nov-18 10:00N 28°07' W 015°25'1 0.9
2017-Nov-18 09:25N 28°08' W 015°25'0 0.7
2017-Nov-18 08:56N 28°08' W 015°25'0 0.0
2017-Nov-18 08:26N 28°08' W 015°25'0 0.0
2017-Nov-18 07:56N 28°08' W 015°25'0 0.0
2017-Nov-18 07:29N 28°08' W 015°25'0 0.0
2017-Nov-18 06:56N 28°08' W 015°25'0 0.0
2017-Nov-18 06:26N 28°08' W 015°25'0 0.0
2017-Nov-18 05:59N 28°08' W 015°25'0 0.0
2017-Nov-18 05:29N 28°08' W 015°25'0 0.0
2017-Nov-18 04:59N 28°08' W 015°25'0 0.0
2017-Nov-18 04:29N 28°08' W 015°25'0 0.0
2017-Nov-18 03:59N 28°08' W 015°25'0 0.0
2017-Nov-18 03:29N 28°08' W 015°25'0 0.0
2017-Nov-18 02:59N 28°08' W 015°25'0 0.0
2017-Nov-18 02:17N 28°08' W 015°25'0 0.0
2017-Nov-18 01:59N 28°08' W 015°25'0 0.0
2017-Nov-18 01:20N 28°08' W 015°25'0 0.0
2017-Nov-18 00:47N 28°08' W 015°25'0 0.0
2017-Nov-18 00:20N 28°08' W 015°25'0 0.0
2017-Nov-17 23:50N 28°08' W 015°25'0 0.0
2017-Nov-17 23:24N 28°08' W 015°25'0 0.0
2017-Nov-17 22:53N 28°08' W 015°25'0 0.0
2017-Nov-17 22:20N 28°08' W 015°25'0 0.0
2017-Nov-17 21:53N 28°08' W 015°25'0 0.0
2017-Nov-17 21:26N 28°08' W 015°25'0 0.0
2017-Nov-17 20:53N 28°08' W 015°25'0 0.0
2017-Nov-17 20:27N 28°08' W 015°25'0 0.0
2017-Nov-17 19:57N 28°08' W 015°25'0 0.0
2017-Nov-17 19:27N 28°08' W 015°25'0 0.0
2017-Nov-17 19:00N 28°08' W 015°25'0 0.0
2017-Nov-17 18:30N 28°08' W 015°25'0 0.0
2017-Nov-17 18:00N 28°08' W 015°25'0 0.0
2017-Nov-17 17:30N 28°08' W 015°25'0 0.0
2017-Nov-17 17:00N 28°08' W 015°25'0 0.0
2017-Nov-17 16:30N 28°08' W 015°25'0 0.0
2017-Nov-17 15:57N 28°08' W 015°25'0 0.0
2017-Nov-17 15:30N 28°08' W 015°25'0 0.0
2017-Nov-17 14:48N 28°08' W 015°25'0 0.0
2017-Nov-17 14:30N 28°08' W 015°25'0 0.0
2017-Nov-17 14:00N 28°08' W 015°25'0 0.0
2017-Nov-17 13:21N 28°08' W 015°25'0 0.0
2017-Nov-17 12:51N 28°08' W 015°25'0 0.0
2017-Nov-17 12:21N 28°08' W 015°25'0 0.0
2017-Nov-17 11:54N 28°08' W 015°25'0 0.0
2017-Nov-17 11:24N 28°08' W 015°25'0 0.0
2017-Nov-17 10:54N 28°08' W 015°25'0 0.0
2017-Nov-17 10:24N 28°08' W 015°25'0 0.0
2017-Nov-17 09:54N 28°08' W 015°25'0 0.0
2017-Nov-17 09:24N 28°08' W 015°25'0 0.0
2017-Nov-17 08:54N 28°08' W 015°25'0 0.0
2017-Nov-17 08:24N 28°08' W 015°25'0 0.0
2017-Nov-17 07:57N 28°08' W 015°25'0 0.0
2017-Nov-17 07:27N 28°08' W 015°25'0 0.0
2017-Nov-17 07:00N 28°08' W 015°25'0 0.0
2017-Nov-17 06:30N 28°08' W 015°25'0 0.0
2017-Nov-17 06:00N 28°08' W 015°25'0 0.0
2017-Nov-17 05:30N 28°08' W 015°25'0 0.0
2017-Nov-17 05:00N 28°08' W 015°25'0 0.0
2017-Nov-17 04:30N 28°08' W 015°25'0 0.0
2017-Nov-17 04:00N 28°08' W 015°25'0 0.0
2017-Nov-17 03:30N 28°08' W 015°25'0 0.0
2017-Nov-17 03:00N 28°08' W 015°25'0 0.0
2017-Nov-17 02:18N 28°08' W 015°25'0 0.0
2017-Nov-17 02:00N 28°08' W 015°25'0 0.0
2017-Nov-17 01:30N 28°08' W 015°25'0 0.0
2017-Nov-17 00:51N 28°08' W 015°25'0 0.0
2017-Nov-17 00:24N 28°08' W 015°25'0 0.0
2017-Nov-16 23:48N 28°08' W 015°25'0 0.0
2017-Nov-16 23:24N 28°08' W 015°25'0 0.0
2017-Nov-16 22:54N 28°08' W 015°25'0 0.0
2017-Nov-16 22:21N 28°08' W 015°25'0 0.0
2017-Nov-16 21:54N 28°08' W 015°25'0 0.0
2017-Nov-16 21:27N 28°08' W 015°25'0 0.0
2017-Nov-16 20:57N 28°08' W 015°25'0 0.0
2017-Nov-16 20:27N 28°08' W 015°25'0 0.0
2017-Nov-16 19:57N 28°08' W 015°25'0 0.0
2017-Nov-16 19:27N 28°08' W 015°25'0 0.0
2017-Nov-16 18:57N 28°08' W 015°25'0 0.0
2017-Nov-16 18:30N 28°08' W 015°25'0 0.0
2017-Nov-16 18:00N 28°08' W 015°25'0 0.0
2017-Nov-16 17:30N 28°08' W 015°25'0 0.0
2017-Nov-16 17:00N 28°08' W 015°25'0 0.0
2017-Nov-16 16:30N 28°08' W 015°25'0 0.0
2017-Nov-16 16:00N 28°08' W 015°25'0 0.0
2017-Nov-16 15:30N 28°08' W 015°25'0 0.0
2017-Nov-16 15:00N 28°08' W 015°25'0 0.0
2017-Nov-16 14:30N 28°08' W 015°25'0 0.0
2017-Nov-16 14:00N 28°08' W 015°25'0 0.0
2017-Nov-16 13:30N 28°08' W 015°25'0 0.0
2017-Nov-16 13:00N 28°08' W 015°25'0 0.0
2017-Nov-16 12:21N 28°08' W 015°25'0 0.0
2017-Nov-16 11:51N 28°08' W 015°25'0 0.0
2017-Nov-16 11:24N 28°08' W 015°25'0 0.0
2017-Nov-16 10:54N 28°08' W 015°25'0 0.0
2017-Nov-16 10:24N 28°08' W 015°25'0 0.0
2017-Nov-16 09:54N 28°08' W 015°25'0 0.0
2017-Nov-16 09:21N 28°08' W 015°25'0 0.0
2017-Nov-16 08:57N 28°08' W 015°25'0 0.0
2017-Nov-16 08:27N 28°08' W 015°25'0 0.0
2017-Nov-16 07:57N 28°08' W 015°25'0 0.0
2017-Nov-16 07:27N 28°08' W 015°25'0 0.0
2017-Nov-16 06:57N 28°08' W 015°25'0 0.0
2017-Nov-16 06:30N 28°08' W 015°25'0 0.0
2017-Nov-16 06:00N 28°08' W 015°25'0 0.0
2017-Nov-16 05:30N 28°08' W 015°25'0 0.0
2017-Nov-16 05:00N 28°08' W 015°25'0 0.0
2017-Nov-16 04:30N 28°08' W 015°25'0 0.0
2017-Nov-16 04:00N 28°08' W 015°25'0 0.0
2017-Nov-16 03:30N 28°08' W 015°25'0 0.0
2017-Nov-16 03:00N 28°08' W 015°25'0 0.0
2017-Nov-16 02:03N 28°08' W 015°25'0 0.1
2017-Nov-16 02:00N 28°08' W 015°25'0 0.0
2017-Nov-16 01:30N 28°08' W 015°25'0 0.0
2017-Nov-16 01:00N 28°08' W 015°25'0 0.0
2017-Nov-16 00:21N 28°08' W 015°25'0 0.0
2017-Nov-15 23:48N 28°08' W 015°25'0 0.0
2017-Nov-15 23:18N 28°08' W 015°25'0 0.0
2017-Nov-15 22:54N 28°08' W 015°25'0 0.0
2017-Nov-15 22:24N 28°08' W 015°25'0 0.0
2017-Nov-15 21:54N 28°08' W 015°25'0 0.0
2017-Nov-15 21:24N 28°08' W 015°25'0 0.0
2017-Nov-15 20:54N 28°08' W 015°25'0 0.0
2017-Nov-15 20:27N 28°08' W 015°25'0 0.0
2017-Nov-15 19:54N 28°08' W 015°25'0 0.0
2017-Nov-15 19:27N 28°08' W 015°25'0 0.0
2017-Nov-15 18:57N 28°08' W 015°25'0 0.0
2017-Nov-15 18:24N 28°08' W 015°25'0 0.0
2017-Nov-15 17:57N 28°08' W 015°25'0 0.0
2017-Nov-15 17:30N 28°08' W 015°25'0 0.0
2017-Nov-15 17:00N 28°08' W 015°25'0 0.0
2017-Nov-15 16:30N 28°08' W 015°25'0 0.0
2017-Nov-15 16:00N 28°08' W 015°25'0 0.0
2017-Nov-15 15:30N 28°08' W 015°25'0 0.0
2017-Nov-15 15:00N 28°08' W 015°25'0 0.0
2017-Nov-15 14:30N 28°08' W 015°25'0 0.0
2017-Nov-15 14:00N 28°08' W 015°25'0 0.0
2017-Nov-15 13:18N 28°08' W 015°25'0 0.0
2017-Nov-15 12:45N 28°08' W 015°25'0 0.0
2017-Nov-15 12:30N 28°08' W 015°25'0 0.0
2017-Nov-15 11:48N 28°08' W 015°25'0 0.0
2017-Nov-15 11:21N 28°08' W 015°25'0 0.0
2017-Nov-15 10:51N 28°08' W 015°25'0 0.0
2017-Nov-15 10:24N 28°08' W 015°25'0 0.0
2017-Nov-15 09:54N 28°08' W 015°25'0 0.0
2017-Nov-15 09:06N 28°08' W 015°25'0 0.0
2017-Nov-15 08:54N 28°08' W 015°25'0 0.0
2017-Nov-15 08:24N 28°08' W 015°25'0 0.0
2017-Nov-15 07:57N 28°08' W 015°25'0 0.0
2017-Nov-15 07:27N 28°08' W 015°25'0 0.0
2017-Nov-15 06:57N 28°08' W 015°25'0 0.0
2017-Nov-15 06:27N 28°08' W 015°25'0 0.0
2017-Nov-15 05:57N 28°08' W 015°25'0 0.0
2017-Nov-15 05:30N 28°08' W 015°25'0 0.0
2017-Nov-15 05:00N 28°08' W 015°25'0 0.0
2017-Nov-15 04:30N 28°08' W 015°25'0 0.0
2017-Nov-15 04:00N 28°08' W 015°25'0 0.0
2017-Nov-15 03:30N 28°08' W 015°25'0 0.0
2017-Nov-15 03:00N 28°08' W 015°25'0 0.0
2017-Nov-15 02:30N 28°08' W 015°25'0 0.0
2017-Nov-15 02:00N 28°08' W 015°25'0 0.0
2017-Nov-15 01:30N 28°08' W 015°25'0 0.0
2017-Nov-15 01:00N 28°08' W 015°25'0 0.0
2017-Nov-15 00:30N 28°08' W 015°25'0 0.0
2017-Nov-15 00:00N 28°08' W 015°25'0 0.0
2017-Nov-14 23:21N 28°08' W 015°25'0 0.0
2017-Nov-14 22:51N 28°08' W 015°25'0 0.0
2017-Nov-14 22:24N 28°08' W 015°25'0 0.0
2017-Nov-14 21:54N 28°08' W 015°25'0 0.0
2017-Nov-14 21:24N 28°08' W 015°25'0 0.0
2017-Nov-14 20:54N 28°08' W 015°25'0 0.0
2017-Nov-14 20:24N 28°08' W 015°25'0 0.0
2017-Nov-14 19:54N 28°08' W 015°25'0 0.0
2017-Nov-14 19:27N 28°08' W 015°25'0 0.0
2017-Nov-14 18:57N 28°08' W 015°25'0 0.0
2017-Nov-14 18:27N 28°08' W 015°25'0 0.0
2017-Nov-14 17:57N 28°08' W 015°25'0 0.0
2017-Nov-14 17:27N 28°08' W 015°25'0 0.0
2017-Nov-14 16:57N 28°08' W 015°25'0 0.0
2017-Nov-14 16:30N 28°08' W 015°25'0 0.0
2017-Nov-14 16:00N 28°08' W 015°25'0 0.0
2017-Nov-14 15:30N 28°08' W 015°25'0 0.0
2017-Nov-14 15:00N 28°08' W 015°25'0 0.0
2017-Nov-14 14:27N 28°08' W 015°25'0 0.0
2017-Nov-14 14:00N 28°08' W 015°25'0 0.0
2017-Nov-14 13:30N 28°08' W 015°25'0 0.0
2017-Nov-14 13:00N 28°08' W 015°25'0 0.0
2017-Nov-14 12:30N 28°08' W 015°25'0 0.0
2017-Nov-14 12:00N 28°08' W 015°25'0 0.0
2017-Nov-14 11:30N 28°08' W 015°25'0 0.0
2017-Nov-14 10:51N 28°08' W 015°25'0 0.0
2017-Nov-14 10:24N 28°08' W 015°25'0 0.0
2017-Nov-14 09:54N 28°08' W 015°25'0 0.0
2017-Nov-14 09:24N 28°08' W 015°25'0 0.0
2017-Nov-14 08:54N 28°08' W 015°25'0 0.0
2017-Nov-14 08:21N 28°08' W 015°25'0 0.0
2017-Nov-14 07:54N 28°08' W 015°25'0 0.0
2017-Nov-14 07:24N 28°08' W 015°25'0 0.0
2017-Nov-14 06:57N 28°08' W 015°25'0 0.0
2017-Nov-14 06:27N 28°08' W 015°25'0 0.0
2017-Nov-14 05:57N 28°08' W 015°25'0 0.0
2017-Nov-14 05:27N 28°08' W 015°25'0 0.0
2017-Nov-14 05:00N 28°08' W 015°25'0 0.0
2017-Nov-14 04:27N 28°08' W 015°25'0 0.0
2017-Nov-14 04:00N 28°08' W 015°25'0 0.0
2017-Nov-14 03:30N 28°08' W 015°25'0 0.0
2017-Nov-14 02:30N 28°08' W 015°25'0 0.0
2017-Nov-14 02:00N 28°08' W 015°25'0 0.0
2017-Nov-14 01:30N 28°08' W 015°25'0 0.0
2017-Nov-14 01:00N 28°08' W 015°25'0 0.0
2017-Nov-14 00:30N 28°08' W 015°25'0 0.0
2017-Nov-14 00:00N 28°08' W 015°25'0 0.0
2017-Nov-13 23:15N 28°08' W 015°25'0 0.0
2017-Nov-13 22:51N 28°08' W 015°25'0 0.0
2017-Nov-13 22:21N 28°08' W 015°25'0 0.0
2017-Nov-13 21:54N 28°08' W 015°25'0 0.0
2017-Nov-13 02:01N 28°08' W 015°25'0 0.0
2017-Nov-13 01:31N 28°08' W 015°25'0 0.0
2017-Nov-13 00:31N 28°08' W 015°25'0 0.0
2017-Nov-12 23:49N 28°08' W 015°25'0 0.0
2017-Nov-12 23:22N 28°08' W 015°25'0 0.0
2017-Nov-12 23:01N 28°08' W 015°25'0 0.0
2017-Nov-12 22:19N 28°08' W 015°25'0 0.0
2017-Nov-12 21:52N 28°08' W 015°25'0 0.0
2017-Nov-12 21:22N 28°08' W 015°25'0 0.0
2017-Nov-12 20:52N 28°08' W 015°25'0 0.0
2017-Nov-12 20:25N 28°08' W 015°25'0 0.0
2017-Nov-12 19:52N 28°08' W 015°25'0 0.0
2017-Nov-12 19:25N 28°08' W 015°25'0 0.0
2017-Nov-12 18:52N 28°08' W 015°25'0 0.0
2017-Nov-12 18:22N 28°08' W 015°25'0 0.0
2017-Nov-12 17:58N 28°08' W 015°25'0 0.0
2017-Nov-12 17:28N 28°08' W 015°25'0 0.0
2017-Nov-12 16:58N 28°08' W 015°25'0 0.0
2017-Nov-12 16:28N 28°08' W 015°25'0 0.0
2017-Nov-12 15:55N 28°08' W 015°25'0 0.0
2017-Nov-12 15:28N 28°08' W 015°25'0 0.0
2017-Nov-12 14:58N 28°08' W 015°25'0 0.0
2017-Nov-12 14:16N 28°08' W 015°25'0 0.2
2017-Nov-12 13:56N 28°08' W 015°26'0 0.0
2017-Nov-12 13:26N 28°08' W 015°26'0 0.0
2017-Nov-12 12:59N 28°08' W 015°26'0 0.2
2017-Nov-12 12:28N 28°08' W 015°26'0 0.0
2017-Nov-12 11:34N 28°08' W 015°26'0 0.0
2017-Nov-12 11:16N 28°08' W 015°26'0 0.0
2017-Nov-12 10:52N 28°08' W 015°26'0 0.0
2017-Nov-12 10:22N 28°08' W 015°26'0 0.0
2017-Nov-12 09:52N 28°08' W 015°26'0 0.0
2017-Nov-12 09:19N 28°08' W 015°26'0 0.0
2017-Nov-12 08:49N 28°08' W 015°26'0 0.0
2017-Nov-12 08:25N 28°08' W 015°26'0 0.0
2017-Nov-12 07:55N 28°08' W 015°26'0 0.0
2017-Nov-12 07:10N 28°08' W 015°26'0 0.0
2017-Nov-12 06:52N 28°08' W 015°26'0 0.0
2017-Nov-12 06:25N 28°08' W 015°26'0 0.0
2017-Nov-12 05:58N 28°08' W 015°26'0 0.0
2017-Nov-12 05:28N 28°08' W 015°26'0 0.0
2017-Nov-12 04:58N 28°08' W 015°26'0 0.0
2017-Nov-12 04:28N 28°08' W 015°26'0 0.0
2017-Nov-12 03:58N 28°08' W 015°26'0 0.0
2017-Nov-12 03:28N 28°08' W 015°26'0 0.0
2017-Nov-12 02:58N 28°08' W 015°26'0 0.0
2017-Nov-12 02:22N 28°08' W 015°26'0 0.0
2017-Nov-12 01:52N 28°08' W 015°26'0 0.0
2017-Nov-12 01:22N 28°08' W 015°26'0 0.0
2017-Nov-12 00:52N 28°08' W 015°26'0 0.0
2017-Nov-12 00:28N 28°08' W 015°26'0 0.0
2017-Nov-11 23:58N 28°08' W 015°26'0 0.0
2017-Nov-11 23:28N 28°08' W 015°26'0 0.0
2017-Nov-11 22:55N 28°08' W 015°26'0 0.0
2017-Nov-11 22:28N 28°08' W 015°26'0 0.0
2017-Nov-11 21:58N 28°08' W 015°26'0 0.0
2017-Nov-11 21:13N 28°08' W 015°26'0 0.0
2017-Nov-11 20:58N 28°08' W 015°26'0 0.0
2017-Nov-11 20:16N 28°08' W 015°26'0 0.0
2017-Nov-11 19:58N 28°08' W 015°26'0 0.0
2017-Nov-11 19:29N 28°08' W 015°26'0 0.0
2017-Nov-11 18:50N 28°08' W 015°26'0 0.0
2017-Nov-11 18:05N 28°08' W 015°26'0 0.0
2017-Nov-11 17:53N 28°08' W 015°26'0 0.0
2017-Nov-11 17:23N 28°08' W 015°26'0 0.0
2017-Nov-11 16:53N 28°08' W 015°26'0 0.1
2017-Nov-11 16:26N 28°08' W 015°26'2 4.2
2017-Nov-11 15:55N 28°06' W 015°24'3 6.4
2017-Nov-11 15:25N 28°03' W 015°22'3 6.4
2017-Nov-11 15:00N 28°01' W 015°21'3 6.0
2017-Nov-11 14:30N 27°58' W 015°19'3 6.1
2017-Nov-11 14:00N 27°56' W 015°17'  

Dump ship's entire track history